Terminal Aerodrome Forecast
Issued by NWS

Home | Current Version | Previous Version | Text Only | Print | Product List | Glossary On
Versions: 1 2 3 4 5 6 7 8 9 10 11 12 13 14 15 16 17
000
FTPA31 PHFO 160948 AAC
TAFHMK
TAF AMD
PHMK 160948Z 1610/1706 33012G20KT 5SM -SHRA BKN020 OVC035
     FM162000 18010KT P6SM VCSH SCT025 BKN040
     FM170500 19005KT P6SM VCSH SCT020 BKN035
      AMD NOT SKED=

USA.gov is the U.S. government's official web portal to all federal, state and local government web resources and services.